Time;durP1;ratioP1;P1;durP2;ratioP2;P2;SDS_P1;SDS_P2;PMS_P1;PMS_P2;Temp;Humidity;BMP_temperature;BMP_pressure;BME280_temperature;BME280_humidity;BME280_pressure;Samples;Min_cycle;Max_cycle;Signal;HPM_P1;HPM_P2
2024/01/13 00:01:45;;;;;;;14.60;9.47;;;;;;;;;;5094901;28;20207;-79
2024/01/13 00:04:13;;;;;;;13.90;10.03;;;;;;;;;;5094699;28;20200;-79
2024/01/13 00:06:40;;;;;;;13.77;10.57;;;;;;;;;;5094383;28;20705;-79
2024/01/13 00:09:07;;;;;;;11.53;9.33;;;;;;;;;;5094063;28;20204;-79
2024/01/13 00:11:34;;;;;;;13.47;9.63;;;;;;;;;;5094380;28;20235;-79
2024/01/13 00:14:01;;;;;;;13.73;10.10;;;;;;;;;;5094159;28;20208;-79
2024/01/13 00:16:28;;;;;;;11.40;8.43;;;;;;;;;;5094342;28;20769;-79
2024/01/13 00:18:54;;;;;;;11.20;8.27;;;;;;;;;;5094429;28;20196;-79
2024/01/13 00:21:23;;;;;;;14.27;9.03;;;;;;;;;;5094185;28;20208;-79
2024/01/13 00:23:49;;;;;;;12.77;9.17;;;;;;;;;;5093943;28;20201;-79
2024/01/13 00:26:16;;;;;;;16.30;9.90;;;;;;;;;;5094474;28;20204;-79
2024/01/13 00:28:43;;;;;;;13.10;9.33;;;;;;;;;;5093860;28;20231;-79
2024/01/13 00:31:12;;;;;;;16.73;9.30;;;;;;;;;;5094127;28;20613;-79
2024/01/13 00:33:43;;;;;;;14.83;9.33;;;;;;;;;;5093872;28;20266;-79
2024/01/13 00:36:12;;;;;;;14.97;9.87;;;;;;;;;;5093948;28;20249;-79
2024/01/13 00:38:40;;;;;;;14.10;9.60;;;;;;;;;;5080730;28;20211;-79
2024/01/13 00:41:08;;;;;;;11.73;8.77;;;;;;;;;;5094074;28;20200;-80
2024/01/13 00:43:37;;;;;;;12.83;8.43;;;;;;;;;;5093776;28;20212;-79
2024/01/13 00:46:04;;;;;;;11.60;8.50;;;;;;;;;;5093084;28;20205;-79
2024/01/13 00:48:31;;;;;;;10.17;8.17;;;;;;;;;;5094147;28;20201;-79
2024/01/13 00:50:59;;;;;;;10.57;7.50;;;;;;;;;;5094207;28;20246;-79
2024/01/13 00:53:26;;;;;;;12.83;8.30;;;;;;;;;;5093325;28;20701;-79
2024/01/13 00:55:54;;;;;;;9.97;7.80;;;;;;;;;;5093999;28;20243;-79
2024/01/13 00:58:21;;;;;;;14.67;8.83;;;;;;;;;;5093630;28;20277;-79
2024/01/13 01:00:48;;;;;;;13.50;9.67;;;;;;;;;;5093841;28;20208;-79
2024/01/13 01:03:15;;;;;;;15.63;9.67;;;;;;;;;;5092537;28;20205;-79
2024/01/13 01:05:41;;;;;;;11.67;8.77;;;;;;;;;;5093572;28;20430;-79
2024/01/13 01:08:08;;;;;;;11.67;8.80;;;;;;;;;;5093154;28;20200;-79
2024/01/13 01:10:35;;;;;;;13.20;9.00;;;;;;;;;;5093018;28;20239;-80
2024/01/13 01:13:04;;;;;;;15.47;9.67;;;;;;;;;;5092800;28;20192;-79
2024/01/13 01:15:31;;;;;;;13.90;9.77;;;;;;;;;;5093562;28;20200;-79
2024/01/13 01:17:57;;;;;;;13.57;9.07;;;;;;;;;;5093503;28;20589;-79
2024/01/13 01:20:25;;;;;;;13.47;9.40;;;;;;;;;;5093117;28;20208;-79
2024/01/13 01:22:52;;;;;;;11.70;8.93;;;;;;;;;;5093315;28;20287;-79
2024/01/13 01:25:18;;;;;;;14.83;8.93;;;;;;;;;;5092426;28;20200;-79
2024/01/13 01:27:45;;;;;;;12.10;10.00;;;;;;;;;;5093407;28;20329;-79
2024/01/13 01:30:14;;;;;;;12.93;8.67;;;;;;;;;;5092565;28;20197;-79
2024/01/13 01:32:41;;;;;;;11.80;8.60;;;;;;;;;;5092778;28;20287;-79
2024/01/13 01:35:08;;;;;;;11.57;9.23;;;;;;;;;;5092228;28;20219;-79
2024/01/13 01:37:36;;;;;;;13.00;9.40;;;;;;;;;;5092779;28;20208;-81
2024/01/13 01:40:04;;;;;;;10.63;8.63;;;;;;;;;;5092930;28;20201;-79
2024/01/13 01:42:31;;;;;;;11.03;8.97;;;;;;;;;;5093390;28;20200;-79
2024/01/13 01:44:57;;;;;;;11.00;8.50;;;;;;;;;;5092023;28;20200;-80
2024/01/13 01:47:27;;;;;;;12.30;8.30;;;;;;;;;;5092878;28;20200;-80
2024/01/13 01:49:54;;;;;;;10.90;7.70;;;;;;;;;;5092500;28;20200;-80
2024/01/13 01:52:21;;;;;;;14.00;9.97;;;;;;;;;;5092526;28;20232;-80
2024/01/13 01:54:47;;;;;;;13.00;8.80;;;;;;;;;;5092137;28;20196;-80
2024/01/13 01:57:16;;;;;;;22.70;15.10;;;;;;;;;;5092563;28;20210;-80
2024/01/13 01:59:42;;;;;;;17.97;11.87;;;;;;;;;;5079101;28;20239;-80
2024/01/13 02:02:10;;;;;;;15.10;8.80;;;;;;;;;;5091737;28;20205;-80
2024/01/13 02:04:39;;;;;;;34.37;20.93;;;;;;;;;;5091995;28;20204;-80
2024/01/13 02:07:06;;;;;;;29.97;19.83;;;;;;;;;;5092721;28;20208;-80
2024/01/13 02:09:33;;;;;;;15.57;11.43;;;;;;;;;;5092317;28;20223;-80
2024/01/13 02:12:00;;;;;;;14.27;10.30;;;;;;;;;;5091937;28;20235;-79
2024/01/13 02:14:27;;;;;;;15.13;9.83;;;;;;;;;;5092342;28;20212;-79
2024/01/13 02:16:54;;;;;;;10.20;7.50;;;;;;;;;;5091661;28;20204;-80
2024/01/13 02:19:21;;;;;;;13.43;8.70;;;;;;;;;;5092113;28;20735;-79
2024/01/13 02:21:49;;;;;;;10.33;7.80;;;;;;;;;;5091954;28;20219;-79
2024/01/13 02:24:16;;;;;;;13.37;8.00;;;;;;;;;;5091810;28;20583;-80
2024/01/13 02:26:42;;;;;;;11.47;8.60;;;;;;;;;;5091619;28;20204;-79
2024/01/13 02:29:09;;;;;;;10.73;7.97;;;;;;;;;;5091500;28;20232;-80
2024/01/13 02:31:36;;;;;;;12.33;8.20;;;;;;;;;;5091536;28;20228;-80
2024/01/13 02:34:03;;;;;;;10.73;7.97;;;;;;;;;;5091732;28;20208;-80
2024/01/13 02:36:29;;;;;;;14.23;8.07;;;;;;;;;;5091761;28;20619;-79
2024/01/13 02:38:58;;;;;;;10.67;7.93;;;;;;;;;;5091682;28;20196;-80
2024/01/13 02:41:24;;;;;;;12.23;7.83;;;;;;;;;;5091503;28;20205;-80
2024/01/13 02:43:51;;;;;;;10.63;8.23;;;;;;;;;;5091341;28;20204;-80
2024/01/13 02:46:18;;;;;;;9.00;8.10;;;;;;;;;;5091097;28;20220;-80
2024/01/13 02:48:48;;;;;;;9.37;8.30;;;;;;;;;;5091158;28;20211;-80
2024/01/13 02:51:16;;;;;;;18.50;11.07;;;;;;;;;;5091034;28;20235;-80
2024/01/13 02:53:43;;;;;;;26.33;14.30;;;;;;;;;;5091562;28;20230;-80
2024/01/13 02:56:14;;;;;;;25.27;14.13;;;;;;;;;;5091147;28;20215;-80
2024/01/13 02:58:41;;;;;;;28.43;16.53;;;;;;;;;;5090848;28;20640;-80
2024/01/13 03:01:08;;;;;;;25.87;15.77;;;;;;;;;;5091519;28;20215;-80
2024/01/13 03:03:35;;;;;;;26.23;17.10;;;;;;;;;;5090953;28;20200;-80
2024/01/13 03:06:05;;;;;;;20.47;14.30;;;;;;;;;;5091215;28;20207;-80
2024/01/13 03:08:32;;;;;;;17.60;11.80;;;;;;;;;;5090959;28;20196;-80
2024/01/13 03:10:59;;;;;;;15.93;11.67;;;;;;;;;;5091352;28;20642;-80
2024/01/13 03:13:27;;;;;;;14.27;10.87;;;;;;;;;;5090770;28;20196;-80
2024/01/13 03:15:54;;;;;;;19.07;13.30;;;;;;;;;;5090877;28;20200;-80
2024/01/13 03:18:21;;;;;;;18.60;12.30;;;;;;;;;;5090783;28;20200;-80
2024/01/13 03:20:47;;;;;;;21.37;11.40;;;;;;;;;;5086035;28;20670;-81
2024/01/13 03:23:14;;;;;;;14.77;10.87;;;;;;;;;;5090499;28;20639;-81
2024/01/13 03:25:41;;;;;;;12.03;9.17;;;;;;;;;;5090677;28;20678;-81
2024/01/13 03:28:08;;;;;;;13.30;10.03;;;;;;;;;;5090695;28;20228;-82
2024/01/13 03:30:36;;;;;;;14.37;10.53;;;;;;;;;;5091353;28;20204;-82
2024/01/13 03:33:03;;;;;;;13.30;9.73;;;;;;;;;;5090852;28;20224;-82
2024/01/13 03:35:30;;;;;;;12.30;9.07;;;;;;;;;;5090930;28;20204;-80
2024/01/13 03:37:56;;;;;;;14.20;9.83;;;;;;;;;;5091041;28;20397;-82
2024/01/13 03:40:23;;;;;;;14.37;8.77;;;;;;;;;;5091201;28;20200;-82
2024/01/13 03:42:50;;;;;;;14.40;9.20;;;;;;;;;;5091309;28;20200;-83
2024/01/13 03:45:17;;;;;;;11.33;8.40;;;;;;;;;;5091300;28;20208;-83
2024/01/13 03:47:45;;;;;;;11.60;8.43;;;;;;;;;;5090991;28;20211;-84
2024/01/13 03:50:15;;;;;;;11.00;8.13;;;;;;;;;;5091900;28;20586;-85
2024/01/13 03:52:42;;;;;;;10.40;7.23;;;;;;;;;;5091419;28;20228;-83
2024/01/13 03:55:09;;;;;;;12.93;8.73;;;;;;;;;;5090981;28;20204;-82
2024/01/13 03:57:36;;;;;;;9.90;8.40;;;;;;;;;;5090788;28;20235;-81
2024/01/13 04:00:03;;;;;;;12.67;8.20;;;;;;;;;;5090842;28;20208;-82
2024/01/13 04:02:30;;;;;;;13.10;8.90;;;;;;;;;;5090502;28;20204;-82
2024/01/13 04:04:58;;;;;;;13.93;8.43;;;;;;;;;;5091095;28;20269;-82
2024/01/13 04:07:25;;;;;;;12.03;8.23;;;;;;;;;;5094445;28;20207;-83
2024/01/13 04:09:52;;;;;;;11.73;9.10;;;;;;;;;;5100635;28;20207;-82
2024/01/13 04:12:18;;;;;;;12.47;9.40;;;;;;;;;;5090955;28;20646;-83
2024/01/13 04:14:45;;;;;;;10.30;8.20;;;;;;;;;;5090629;28;20200;-83
2024/01/13 04:17:12;;;;;;;11.93;8.70;;;;;;;;;;5090901;28;20205;-83
2024/01/13 04:19:39;;;;;;;12.40;8.80;;;;;;;;;;5090514;28;20208;-81
2024/01/13 04:22:07;;;;;;;15.10;9.43;;;;;;;;;;5090853;28;20631;-82
2024/01/13 04:24:34;;;;;;;25.03;15.17;;;;;;;;;;5090906;28;20207;-82
2024/01/13 04:27:01;;;;;;;16.70;11.80;;;;;;;;;;5090434;28;20254;-82
2024/01/13 04:29:28;;;;;;;17.97;12.77;;;;;;;;;;5091085;28;20228;-82
2024/01/13 04:31:55;;;;;;;22.87;16.83;;;;;;;;;;5091036;28;20227;-82
2024/01/13 04:34:22;;;;;;;23.20;16.77;;;;;;;;;;5090350;28;20239;-82
2024/01/13 04:36:48;;;;;;;16.60;12.73;;;;;;;;;;5090372;28;20201;-82
2024/01/13 04:39:17;;;;;;;13.30;10.70;;;;;;;;;;5092664;28;20206;-83
2024/01/13 04:41:44;;;;;;;16.27;10.93;;;;;;;;;;5094447;28;20682;-82
2024/01/13 04:44:10;;;;;;;17.23;11.40;;;;;;;;;;5094239;28;20666;-83
2024/01/13 04:46:37;;;;;;;12.63;10.30;;;;;;;;;;5093882;28;20216;-82
2024/01/13 04:49:04;;;;;;;17.33;11.80;;;;;;;;;;5094160;28;20223;-81
2024/01/13 04:51:31;;;;;;;14.03;11.33;;;;;;;;;;5094225;28;20382;-82
2024/01/13 04:53:58;;;;;;;17.00;12.37;;;;;;;;;;5093920;28;20208;-82
2024/01/13 04:56:26;;;;;;;17.13;12.03;;;;;;;;;;5080296;28;20208;-81
2024/01/13 04:58:53;;;;;;;18.47;12.73;;;;;;;;;;5093682;28;20207;-82
2024/01/13 05:01:19;;;;;;;21.13;14.43;;;;;;;;;;5094185;28;20212;-82
2024/01/13 05:03:46;;;;;;;20.30;14.00;;;;;;;;;;5093656;28;20204;-82
2024/01/13 05:06:15;;;;;;;17.30;12.10;;;;;;;;;;5093953;28;20602;-82
2024/01/13 05:08:42;;;;;;;17.57;11.87;;;;;;;;;;5093470;28;20207;-82
2024/01/13 05:11:09;;;;;;;15.90;10.13;;;;;;;;;;5093619;28;20207;-82
2024/01/13 05:13:37;;;;;;;15.20;10.57;;;;;;;;;;5093222;28;20204;-82
2024/01/13 05:16:04;;;;;;;17.00;10.60;;;;;;;;;;5094073;28;20196;-82
2024/01/13 05:18:31;;;;;;;16.70;11.00;;;;;;;;;;5092785;28;20745;-83
2024/01/13 05:20:58;;;;;;;15.73;11.10;;;;;;;;;;5093135;28;20200;-82
2024/01/13 05:23:25;;;;;;;16.43;12.40;;;;;;;;;;5093053;28;20656;-81
2024/01/13 05:25:52;;;;;;;16.23;11.00;;;;;;;;;;5092418;28;20192;-82
2024/01/13 05:28:19;;;;;;;16.07;11.70;;;;;;;;;;5092936;28;20236;-81
2024/01/13 05:30:47;;;;;;;21.87;12.73;;;;;;;;;;5093128;28;20204;-82
2024/01/13 05:33:14;;;;;;;17.33;12.40;;;;;;;;;;5092799;28;20228;-82
2024/01/13 05:35:41;;;;;;;16.73;10.83;;;;;;;;;;5093515;28;20208;-82
2024/01/13 05:38:08;;;;;;;21.03;14.90;;;;;;;;;;5093218;28;20212;-82
2024/01/13 05:40:35;;;;;;;19.57;14.10;;;;;;;;;;5093386;28;20204;-82
2024/01/13 05:43:01;;;;;;;17.73;11.80;;;;;;;;;;5092885;28;20695;-83
2024/01/13 05:45:28;;;;;;;14.30;10.00;;;;;;;;;;5093124;28;20211;-82
2024/01/13 05:47:56;;;;;;;17.47;10.90;;;;;;;;;;5093092;28;20200;-82
2024/01/13 05:50:23;;;;;;;15.37;10.13;;;;;;;;;;5092850;28;20674;-83
2024/01/13 05:52:50;;;;;;;13.57;8.83;;;;;;;;;;5092403;28;20224;-83
2024/01/13 05:55:17;;;;;;;13.43;10.17;;;;;;;;;;5092893;28;20211;-83
2024/01/13 05:57:44;;;;;;;13.13;9.50;;;;;;;;;;5092672;28;20204;-83
2024/01/13 06:00:11;;;;;;;19.23;11.57;;;;;;;;;;5092888;28;20208;-82
2024/01/13 06:02:38;;;;;;;15.50;11.10;;;;;;;;;;5092782;28;20200;-83
2024/01/13 06:05:07;;;;;;;28.23;17.57;;;;;;;;;;5092567;28;20197;-83
2024/01/13 06:07:34;;;;;;;21.53;14.13;;;;;;;;;;5092814;28;20204;-82
2024/01/13 06:10:01;;;;;;;17.30;12.37;;;;;;;;;;5092836;28;20257;-82
2024/01/13 06:12:28;;;;;;;21.40;12.03;;;;;;;;;;5092135;28;20608;-82
2024/01/13 06:14:55;;;;;;;15.83;11.57;;;;;;;;;;5092707;28;20205;-82
2024/01/13 06:17:22;;;;;;;18.93;12.23;;;;;;;;;;5092239;28;20212;-82
2024/01/13 06:19:49;;;;;;;17.20;11.27;;;;;;;;;;5092376;28;20211;-83
2024/01/13 06:22:17;;;;;;;18.40;12.03;;;;;;;;;;5092029;28;20204;-83
2024/01/13 06:24:44;;;;;;;20.27;11.63;;;;;;;;;;5092120;28;20211;-82
2024/01/13 06:27:13;;;;;;;17.60;10.97;;;;;;;;;;5092236;28;20207;-82
2024/01/13 06:29:40;;;;;;;17.97;12.07;;;;;;;;;;5090314;28;20228;-83
2024/01/13 06:32:06;;;;;;;21.27;13.97;;;;;;;;;;5091959;28;20227;-82
2024/01/13 06:34:33;;;;;;;18.77;12.57;;;;;;;;;;5092198;28;20219;-82
2024/01/13 06:37:00;;;;;;;20.97;13.77;;;;;;;;;;5104535;28;20199;-83
2024/01/13 06:39:30;;;;;;;24.30;15.53;;;;;;;;;;5093023;28;20196;-83
2024/01/13 06:41:56;;;;;;;18.37;14.10;;;;;;;;;;5092044;28;20230;-83
2024/01/13 06:44:23;;;;;;;27.10;16.53;;;;;;;;;;5091672;28;20575;-82
2024/01/13 06:46:50;;;;;;;19.37;14.13;;;;;;;;;;5092406;28;20211;-84
2024/01/13 06:49:17;;;;;;;22.53;13.00;;;;;;;;;;5092187;28;20208;-83
2024/01/13 06:51:43;;;;;;;20.90;13.20;;;;;;;;;;5091894;28;20204;-82
2024/01/13 06:54:10;;;;;;;20.90;12.63;;;;;;;;;;5092100;28;20212;-82
2024/01/13 06:56:41;;;;;;;23.70;15.80;;;;;;;;;;5091311;28;20200;-82
2024/01/13 06:59:08;;;;;;;21.73;13.63;;;;;;;;;;5091537;28;20658;-80
2024/01/13 07:01:37;;;;;;;30.80;14.73;;;;;;;;;;5090220;28;20192;-80
2024/01/13 07:04:05;;;;;;;22.53;13.67;;;;;;;;;;5091519;28;20204;-79
2024/01/13 07:06:32;;;;;;;25.60;16.00;;;;;;;;;;5091855;28;20204;-78
2024/01/13 07:08:58;;;;;;;18.90;12.07;;;;;;;;;;5091022;28;20200;-80
2024/01/13 07:11:26;;;;;;;21.07;12.37;;;;;;;;;;5090849;28;20201;-80
2024/01/13 07:13:54;;;;;;;16.07;10.63;;;;;;;;;;5091151;28;20220;-80
2024/01/13 07:16:21;;;;;;;22.87;14.83;;;;;;;;;;5090620;28;20201;-79
2024/01/13 07:18:47;;;;;;;19.43;12.80;;;;;;;;;;5090992;28;20200;-79
2024/01/13 07:21:14;;;;;;;26.93;12.57;;;;;;;;;;5090684;28;20211;-79
2024/01/13 07:23:42;;;;;;;37.43;18.00;;;;;;;;;;5090343;28;20204;-80
2024/01/13 07:26:14;;;;;;;21.07;11.03;;;;;;;;;;5091064;28;20215;-80
2024/01/13 07:28:41;;;;;;;14.50;10.60;;;;;;;;;;5090801;28;20224;-81
2024/01/13 07:31:10;;;;;;;19.97;11.43;;;;;;;;;;5090937;28;20224;-82
2024/01/13 07:33:38;;;;;;;14.80;10.43;;;;;;;;;;5090766;28;20236;-81
2024/01/13 07:36:06;;;;;;;18.47;10.80;;;;;;;;;;5090966;28;20212;-80
2024/01/13 07:38:33;;;;;;;17.03;12.07;;;;;;;;;;5091114;28;20207;-80
2024/01/13 07:41:00;;;;;;;12.97;11.10;;;;;;;;;;5090622;28;20207;-79
2024/01/13 07:43:26;;;;;;;15.53;10.13;;;;;;;;;;5090900;28;20207;-79
2024/01/13 07:45:53;;;;;;;17.33;10.33;;;;;;;;;;5090486;28;20200;-78
2024/01/13 07:48:22;;;;;;;16.03;9.83;;;;;;;;;;5090620;28;20216;-79
2024/01/13 07:50:48;;;;;;;18.93;11.47;;;;;;;;;;5088216;28;20208;-79
2024/01/13 07:53:15;;;;;;;18.13;11.70;;;;;;;;;;5091013;28;20234;-78
2024/01/13 07:55:43;;;;;;;14.10;8.90;;;;;;;;;;5090488;28;20215;-79
2024/01/13 07:58:11;;;;;;;16.53;10.00;;;;;;;;;;5090546;28;20291;-78
2024/01/13 08:00:38;;;;;;;17.90;9.93;;;;;;;;;;5090797;28;20204;-79
2024/01/13 08:03:05;;;;;;;13.67;8.13;;;;;;;;;;5090778;28;20262;-79
2024/01/13 08:05:33;;;;;;;14.40;8.93;;;;;;;;;;5090632;28;20200;-79
2024/01/13 08:08:01;;;;;;;17.03;10.27;;;;;;;;;;5090815;28;20216;-79
2024/01/13 08:10:28;;;;;;;15.77;11.03;;;;;;;;;;5090445;28;20197;-77
2024/01/13 08:12:55;;;;;;;15.07;9.07;;;;;;;;;;5091803;28;20236;-81
2024/01/13 08:15:21;;;;;;;14.77;9.13;;;;;;;;;;5094173;28;20713;-78
2024/01/13 08:17:48;;;;;;;17.70;9.20;;;;;;;;;;5094876;28;20204;-78
2024/01/13 08:20:15;;;;;;;12.40;8.87;;;;;;;;;;5094208;28;20200;-78
2024/01/13 08:22:43;;;;;;;13.03;9.33;;;;;;;;;;5093640;28;20995;-79
2024/01/13 08:25:13;;;;;;;12.47;8.80;;;;;;;;;;5093694;28;20682;-79
2024/01/13 08:27:40;;;;;;;11.70;8.47;;;;;;;;;;5093770;28;20224;-77
2024/01/13 08:30:07;;;;;;;12.07;8.07;;;;;;;;;;5093637;28;20620;-78
2024/01/13 08:32:36;;;;;;;10.47;8.20;;;;;;;;;;5093240;28;20227;-77
2024/01/13 08:35:04;;;;;;;15.80;9.47;;;;;;;;;;5093361;28;20209;-77
2024/01/13 08:37:30;;;;;;;13.43;8.67;;;;;;;;;;5093591;28;20200;-77
2024/01/13 08:39:59;;;;;;;14.50;9.57;;;;;;;;;;5093723;28;20261;-77
2024/01/13 08:42:25;;;;;;;12.57;8.37;;;;;;;;;;5093177;28;20207;-77
2024/01/13 08:44:52;;;;;;;11.93;8.67;;;;;;;;;;5092878;28;20201;-78
2024/01/13 08:47:19;;;;;;;15.50;9.13;;;;;;;;;;5093978;28;20593;-79
2024/01/13 08:49:46;;;;;;;12.47;8.87;;;;;;;;;;5093088;28;20219;-78
2024/01/13 08:52:13;;;;;;;14.80;9.30;;;;;;;;;;5092944;28;20597;-79
2024/01/13 08:54:39;;;;;;;14.27;9.30;;;;;;;;;;5088942;28;20238;-79
2024/01/13 08:57:08;;;;;;;10.00;7.93;;;;;;;;;;5093470;28;20206;-79
2024/01/13 08:59:37;;;;;;;11.43;7.23;;;;;;;;;;5093255;28;20212;-79
2024/01/13 09:02:06;;;;;;;10.67;7.37;;;;;;;;;;5092985;28;20203;-79
2024/01/13 09:04:33;;;;;;;10.63;7.50;;;;;;;;;;5092934;28;20686;-78
2024/01/13 09:07:00;;;;;;;12.50;8.73;;;;;;;;;;5093287;28;20203;-77
2024/01/13 09:09:28;;;;;;;11.93;8.60;;;;;;;;;;5093031;28;20204;-79
2024/01/13 09:11:54;;;;;;;12.53;8.63;;;;;;;;;;5092960;28;20690;-77
2024/01/13 09:14:23;;;;;;;13.83;8.93;;;;;;;;;;5092301;28;20852;-78
2024/01/13 09:16:49;;;;;;;13.33;8.43;;;;;;;;;;5093225;28;20207;-80
2024/01/13 09:19:16;;;;;;;11.20;7.97;;;;;;;;;;5092737;28;20212;-77
2024/01/13 09:21:43;;;;;;;22.50;14.20;;;;;;;;;;5092510;28;20205;-78
2024/01/13 09:24:12;;;;;;;12.07;7.40;;;;;;;;;;5091853;28;20651;-81
2024/01/13 09:26:41;;;;;;;13.87;9.53;;;;;;;;;;5088887;28;20232;-79
2024/01/13 09:29:07;;;;;;;14.93;9.23;;;;;;;;;;5092811;28;20652;-79
2024/01/13 09:31:38;;;;;;;12.17;8.97;;;;;;;;;;5092891;28;20208;-79
2024/01/13 09:34:07;;;;;;;12.67;8.30;;;;;;;;;;5088343;28;20774;-79
2024/01/13 09:36:34;;;;;;;11.40;7.23;;;;;;;;;;5092465;28;20283;-79
2024/01/13 09:39:01;;;;;;;14.67;9.37;;;;;;;;;;5092522;28;20207;-79
2024/01/13 09:41:29;;;;;;;12.27;8.07;;;;;;;;;;5092294;28;20207;-80
2024/01/13 09:44:02;;;;;;;12.73;7.83;;;;;;;;;;5092544;28;20208;-79
2024/01/13 09:46:29;;;;;;;8.77;7.63;;;;;;;;;;5092218;28;20287;-80
2024/01/13 09:48:58;;;;;;;12.87;7.63;;;;;;;;;;5092527;28;20203;-80
2024/01/13 09:51:26;;;;;;;10.70;7.40;;;;;;;;;;5092029;28;20205;-79
2024/01/13 09:53:56;;;;;;;10.83;7.07;;;;;;;;;;5092236;28;20226;-79
2024/01/13 09:56:26;;;;;;;9.87;7.57;;;;;;;;;;5091707;28;20665;-79
2024/01/13 09:58:53;;;;;;;11.17;8.07;;;;;;;;;;5091792;28;20204;-81
2024/01/13 10:01:19;;;;;;;11.43;7.33;;;;;;;;;;5091435;28;20215;-79
2024/01/13 10:03:46;;;;;;;11.13;8.00;;;;;;;;;;5091442;28;20204;-79
2024/01/13 10:06:14;;;;;;;13.67;9.17;;;;;;;;;;5091282;28;20200;-79
2024/01/13 10:08:41;;;;;;;12.60;7.67;;;;;;;;;;5091394;28;20208;-80
2024/01/13 10:11:08;;;;;;;9.30;6.47;;;;;;;;;;5091975;28;20567;-79
2024/01/13 10:13:36;;;;;;;8.57;6.87;;;;;;;;;;5092067;28;20224;-79
2024/01/13 10:16:04;;;;;;;11.97;8.33;;;;;;;;;;5092047;28;20207;-79
2024/01/13 10:18:32;;;;;;;10.43;7.60;;;;;;;;;;5092664;28;20664;-79
2024/01/13 10:20:59;;;;;;;10.60;8.10;;;;;;;;;;5092358;28;20245;-80
2024/01/13 10:23:28;;;;;;;10.50;7.07;;;;;;;;;;5091842;28;20562;-80
2024/01/13 10:25:55;;;;;;;10.90;7.53;;;;;;;;;;5092158;28;20200;-79
2024/01/13 10:28:23;;;;;;;9.60;7.10;;;;;;;;;;5091439;28;20220;-83
2024/01/13 10:30:51;;;;;;;13.97;7.90;;;;;;;;;;5092165;28;20210;-80
2024/01/13 10:33:17;;;;;;;9.90;6.87;;;;;;;;;;5091605;28;20251;-79
2024/01/13 10:35:44;;;;;;;10.63;8.00;;;;;;;;;;5091066;28;20200;-77
2024/01/13 10:38:14;;;;;;;11.10;7.73;;;;;;;;;;5091350;28;20212;-79
2024/01/13 10:40:42;;;;;;;10.87;7.00;;;;;;;;;;5092046;28;20207;-79
2024/01/13 10:43:11;;;;;;;14.93;8.53;;;;;;;;;;5091311;28;20200;-79
2024/01/13 10:45:41;;;;;;;15.43;7.10;;;;;;;;;;5091886;28;20261;-78
2024/01/13 10:48:16;;;;;;;9.13;6.70;;;;;;;;;;5091135;28;20231;-79
2024/01/13 10:50:44;;;;;;;10.20;7.43;;;;;;;;;;5091665;28;20215;-79
2024/01/13 10:53:17;;;;;;;11.07;7.57;;;;;;;;;;5091527;28;20208;-79
2024/01/13 10:55:45;;;;;;;12.60;6.63;;;;;;;;;;5091533;28;20199;-79
2024/01/13 10:58:13;;;;;;;9.17;7.40;;;;;;;;;;5091624;28;20196;-79
2024/01/13 11:00:40;;;;;;;11.50;7.43;;;;;;;;;;5091726;28;20219;-79
2024/01/13 11:03:07;;;;;;;8.80;6.97;;;;;;;;;;5090620;28;20635;-79
2024/01/13 11:05:36;;;;;;;9.27;7.17;;;;;;;;;;5091339;28;20693;-79
2024/01/13 11:08:06;;;;;;;12.33;8.43;;;;;;;;;;5091049;28;20690;-79
2024/01/13 11:10:35;;;;;;;9.97;7.63;;;;;;;;;;5091126;28;20222;-79
2024/01/13 11:13:08;;;;;;;13.00;6.93;;;;;;;;;;5077808;28;20203;-79
2024/01/13 11:15:39;;;;;;;9.00;7.60;;;;;;;;;;5090696;28;20204;-79
2024/01/13 11:18:06;;;;;;;12.00;6.90;;;;;;;;;;5090956;28;20207;-79
2024/01/13 11:21:01;;;;;;;8.63;7.07;;;;;;;;;;5091076;28;20215;-79
2024/01/13 11:23:27;;;;;;;11.20;7.20;;;;;;;;;;5091357;28;20568;-80
2024/01/13 11:25:54;;;;;;;7.40;6.07;;;;;;;;;;5090966;28;20632;-82
2024/01/13 11:28:23;;;;;;;9.77;6.83;;;;;;;;;;5090958;28;20231;-79
2024/01/13 11:30:49;;;;;;;9.90;6.63;;;;;;;;;;5091324;28;20192;-79
2024/01/13 11:33:16;;;;;;;9.23;6.33;;;;;;;;;;5090846;28;20261;-79
2024/01/13 11:35:46;;;;;;;11.47;6.57;;;;;;;;;;5090684;28;20705;-79
2024/01/13 11:38:14;;;;;;;8.40;6.47;;;;;;;;;;5090782;28;20200;-79
2024/01/13 11:40:46;;;;;;;10.63;8.43;;;;;;;;;;5090989;28;20295;-79
2024/01/13 11:43:24;;;;;;;18.13;13.87;;;;;;;;;;5090777;28;20743;-79
2024/01/13 11:45:51;;;;;;;10.70;7.37;;;;;;;;;;5090955;28;20208;-79
2024/01/13 11:48:39;;;;;;;10.13;6.77;;;;;;;;;;5093079;28;20211;-79
2024/01/13 11:51:08;;;;;;;7.97;6.00;;;;;;;;;;5094913;28;20211;-80
2024/01/13 11:53:41;;;;;;;8.40;6.77;;;;;;;;;;5094826;28;20208;-81
2024/01/13 11:56:09;;;;;;;10.30;6.70;;;;;;;;;;5094765;28;20192;-79
2024/01/13 11:58:39;;;;;;;9.70;6.43;;;;;;;;;;5094673;28;20712;-79
2024/01/13 12:01:07;;;;;;;11.13;6.30;;;;;;;;;;5094921;28;20208;-79
2024/01/13 12:03:37;;;;;;;7.43;5.67;;;;;;;;;;5094534;28;20212;-79
2024/01/13 12:06:04;;;;;;;9.33;7.03;;;;;;;;;;5094626;28;20209;-80
2024/01/13 12:08:31;;;;;;;7.87;5.83;;;;;;;;;;5094506;28;20204;-79
2024/01/13 12:10:58;;;;;;;7.50;6.00;;;;;;;;;;5094695;28;20193;-80
2024/01/13 12:13:25;;;;;;;9.30;6.80;;;;;;;;;;5082110;28;20205;-79
2024/01/13 12:16:04;;;;;;;10.33;6.63;;;;;;;;;;5093538;28;20231;-79
2024/01/13 12:18:32;;;;;;;7.77;6.13;;;;;;;;;;5086976;28;20271;-79
2024/01/13 12:21:01;;;;;;;9.87;6.97;;;;;;;;;;5094450;28;20598;-80
2024/01/13 12:23:28;;;;;;;9.10;6.90;;;;;;;;;;5094242;28;20673;-80
2024/01/13 12:25:56;;;;;;;9.57;6.77;;;;;;;;;;5094798;28;20200;-79
2024/01/13 12:28:23;;;;;;;8.93;6.97;;;;;;;;;;5094597;28;20232;-79
2024/01/13 12:30:54;;;;;;;10.53;6.73;;;;;;;;;;5094110;28;20200;-79
2024/01/13 12:33:23;;;;;;;9.90;6.60;;;;;;;;;;5094094;28;20200;-79
2024/01/13 12:35:49;;;;;;;10.20;8.03;;;;;;;;;;5094762;28;20236;-79
2024/01/13 12:38:16;;;;;;;10.30;7.43;;;;;;;;;;5093695;28;20201;-80
2024/01/13 12:40:43;;;;;;;11.67;7.70;;;;;;;;;;5094308;28;20295;-79
2024/01/13 12:43:13;;;;;;;9.60;6.33;;;;;;;;;;5094134;28;20291;-80
2024/01/13 12:45:39;;;;;;;8.07;6.53;;;;;;;;;;5094069;28;20200;-80
2024/01/13 12:48:09;;;;;;;9.13;6.43;;;;;;;;;;5093474;28;20204;-80
2024/01/13 12:50:36;;;;;;;9.77;7.67;;;;;;;;;;5094036;28;20204;-79
2024/01/13 12:53:06;;;;;;;10.77;7.73;;;;;;;;;;5093454;28;20197;-79
2024/01/13 12:55:32;;;;;;;9.77;7.50;;;;;;;;;;5093919;28;20301;-79
2024/01/13 12:57:59;;;;;;;11.57;6.70;;;;;;;;;;5093680;28;20201;-80
2024/01/13 13:00:29;;;;;;;11.67;7.53;;;;;;;;;;5092554;28;20682;-79
2024/01/13 13:02:55;;;;;;;11.10;6.60;;;;;;;;;;5091258;28;20234;-78
2024/01/13 13:05:24;;;;;;;10.73;7.33;;;;;;;;;;5093035;28;20212;-78
2024/01/13 13:07:51;;;;;;;15.57;8.97;;;;;;;;;;5093341;28;20266;-78
2024/01/13 13:10:19;;;;;;;9.87;7.40;;;;;;;;;;5092190;28;20268;-77
2024/01/13 13:12:46;;;;;;;10.10;7.43;;;;;;;;;;5092954;28;20200;-78
2024/01/13 13:15:13;;;;;;;9.13;6.77;;;;;;;;;;5095779;28;20296;-79
2024/01/13 13:17:40;;;;;;;10.03;8.00;;;;;;;;;;5093874;28;20207;-82
2024/01/13 13:20:08;;;;;;;9.07;6.37;;;;;;;;;;5091504;28;20208;-79
2024/01/13 13:22:37;;;;;;;12.77;7.67;;;;;;;;;;5081426;28;20208;-79
2024/01/13 13:25:05;;;;;;;11.67;7.47;;;;;;;;;;5093208;28;20227;-82
2024/01/13 13:27:32;;;;;;;11.20;8.80;;;;;;;;;;5093689;28;20208;-81
2024/01/13 13:29:58;;;;;;;11.03;7.17;;;;;;;;;;5093005;28;20212;-81
2024/01/13 13:32:25;;;;;;;9.23;7.57;;;;;;;;;;5079494;28;20201;-80
2024/01/13 13:34:52;;;;;;;8.50;6.30;;;;;;;;;;5079356;28;20220;-78
2024/01/13 13:37:20;;;;;;;10.37;6.30;;;;;;;;;;5093013;28;20205;-79
2024/01/13 13:39:48;;;;;;;9.50;6.60;;;;;;;;;;5072927;28;20216;-79
2024/01/13 13:42:15;;;;;;;8.50;6.80;;;;;;;;;;5086282;28;20215;-80
2024/01/13 13:44:42;;;;;;;10.80;6.63;;;;;;;;;;5092870;28;20212;-79
2024/01/13 13:47:09;;;;;;;14.33;9.17;;;;;;;;;;5093103;28;20200;-79
2024/01/13 13:49:39;;;;;;;10.50;8.10;;;;;;;;;;5092407;28;20212;-78
2024/01/13 13:52:06;;;;;;;12.80;7.93;;;;;;;;;;5092183;28;20196;-78
2024/01/13 13:54:33;;;;;;;9.13;7.43;;;;;;;;;;5089273;28;20229;-79
2024/01/13 13:57:01;;;;;;;10.60;7.10;;;;;;;;;;5087559;28;20197;-80
2024/01/13 13:59:27;;;;;;;8.87;6.93;;;;;;;;;;5092442;28;20210;-76
2024/01/13 14:01:54;;;;;;;7.17;5.17;;;;;;;;;;5092435;28;20573;-84
2024/01/13 14:04:21;;;;;;;7.37;5.30;;;;;;;;;;5092352;28;20212;-84
2024/01/13 14:06:48;;;;;;;6.70;5.63;;;;;;;;;;5092797;28;20204;-80
2024/01/13 14:09:14;;;;;;;5.60;5.00;;;;;;;;;;5083541;28;20197;-81
2024/01/13 14:11:41;;;;;;;10.40;6.43;;;;;;;;;;5087791;28;20730;-82
2024/01/13 14:14:11;;;;;;;7.83;5.73;;;;;;;;;;5091840;28;20200;-83
2024/01/13 14:16:38;;;;;;;8.57;5.73;;;;;;;;;;5092199;28;20678;-83
2024/01/13 14:19:05;;;;;;;8.00;5.67;;;;;;;;;;5091756;28;20241;-80
2024/01/13 14:21:32;;;;;;;11.97;5.97;;;;;;;;;;5091813;28;20222;-80
2024/01/13 14:23:58;;;;;;;45.80;21.60;;;;;;;;;;5091542;28;20196;-80
2024/01/13 14:26:25;;;;;;;10.47;8.33;;;;;;;;;;5091690;28;20633;-79
2024/01/13 14:28:52;;;;;;;8.93;6.57;;;;;;;;;;5091657;28;20771;-81
2024/01/13 14:31:20;;;;;;;9.50;7.70;;;;;;;;;;5091828;28;20619;-81